Time;durP1;ratioP1;P1;durP2;ratioP2;P2;SDS_P1;SDS_P2;PMS_P1;PMS_P2;Temp;Humidity;BMP_temperature;BMP_pressure;BME280_temperature;BME280_humidity;BME280_pressure;Samples;Min_cycle;Max_cycle;Signal;HPM_P1;HPM_P2
2022/01/05 00:02:13;;;;;;;5.45;1.08;;;5.00;99.90;;;;;;5042754;28;20491;-60
2022/01/05 00:04:39;;;;;;;4.10;0.80;;;4.90;99.70;;;;;;5049212;28;20025;-60
2022/01/05 00:07:05;;;;;;;3.88;0.60;;;4.90;99.60;;;;;;5048326;28;20488;-60
2022/01/05 00:09:30;;;;;;;6.10;1.20;;;4.90;99.60;;;;;;5047363;28;20029;-59
2022/01/05 00:11:56;;;;;;;6.53;0.80;;;4.90;99.40;;;;;;5044902;28;20515;-60
2022/01/05 00:14:22;;;;;;;7.85;1.00;;;4.90;99.40;;;;;;5047715;28;20492;-60
2022/01/05 00:16:47;;;;;;;5.63;1.08;;;4.80;99.20;;;;;;5040686;28;20397;-60
2022/01/05 00:19:13;;;;;;;8.00;0.73;;;4.80;99.10;;;;;;5045027;28;20025;-60
2022/01/05 00:21:40;;;;;;;6.53;0.90;;;4.80;99.10;;;;;;5047463;28;20033;-60
2022/01/05 00:24:06;;;;;;;6.95;1.73;;;4.80;99.00;;;;;;5047344;28;20040;-60
2022/01/05 00:26:33;;;;;;;6.20;0.75;;;4.80;99.00;;;;;;5044997;28;20033;-60
2022/01/05 00:28:58;;;;;;;4.15;0.70;;;4.80;99.00;;;;;;5045196;28;20472;-60
2022/01/05 00:31:24;;;;;;;3.60;0.80;;;4.80;99.00;;;;;;5050122;28;20031;-60
2022/01/05 00:33:50;;;;;;;10.07;0.77;;;4.70;98.90;;;;;;5047085;28;20026;-60
2022/01/05 00:36:16;;;;;;;9.15;1.00;;;4.70;98.90;;;;;;5042035;28;20393;-60
2022/01/05 00:38:42;;;;;;;5.68;0.90;;;4.70;98.80;;;;;;5039348;28;20017;-60
2022/01/05 00:41:08;;;;;;;6.68;1.20;;;4.70;98.70;;;;;;5047021;28;20590;-60
2022/01/05 00:43:33;;;;;;;4.85;1.17;;;4.70;98.60;;;;;;5045904;28;20024;-60
2022/01/05 00:45:59;;;;;;;6.95;1.05;;;4.70;98.50;;;;;;5049970;28;20032;-60
2022/01/05 00:48:24;;;;;;;4.30;0.63;;;4.70;98.50;;;;;;5043895;28;20095;-60
2022/01/05 00:50:50;;;;;;;6.10;0.90;;;4.70;98.70;;;;;;5046571;28;20021;-60
2022/01/05 00:53:15;;;;;;;5.45;0.68;;;4.70;98.50;;;;;;5049782;28;20029;-60
2022/01/05 00:55:41;;;;;;;4.40;0.57;;;4.70;98.50;;;;;;5047067;28;20024;-60
2022/01/05 00:58:07;;;;;;;6.30;1.55;;;4.70;98.50;;;;;;5047067;28;20064;-60
2022/01/05 01:00:32;;;;;;;6.78;1.02;;;4.60;98.50;;;;;;5049011;28;20033;-60
2022/01/05 01:02:58;;;;;;;6.53;1.00;;;4.60;98.50;;;;;;5047478;28;20029;-60
2022/01/05 01:05:23;;;;;;;8.90;1.73;;;4.50;98.50;;;;;;5043998;28;20029;-60
2022/01/05 01:07:49;;;;;;;6.63;0.98;;;4.50;98.50;;;;;;5046343;28;20017;-60
2022/01/05 01:10:15;;;;;;;6.32;0.75;;;4.50;98.60;;;;;;5046736;28;20528;-60
2022/01/05 01:12:41;;;;;;;4.60;0.95;;;4.50;98.60;;;;;;5047621;28;20370;-60
2022/01/05 01:15:09;;;;;;;6.20;1.20;;;4.40;98.50;;;;;;5042901;28;20021;-60
2022/01/05 01:17:34;;;;;;;5.50;0.90;;;4.40;98.50;;;;;;5044155;28;20107;-60
2022/01/05 01:20:00;;;;;;;4.03;1.10;;;4.30;98.60;;;;;;5048109;28;20175;-60
2022/01/05 01:22:29;;;;;;;11.75;1.27;;;4.30;98.60;;;;;;5044380;28;20040;-60
2022/01/05 01:24:54;;;;;;;9.90;0.95;;;4.30;98.60;;;;;;5028678;28;20025;-60
2022/01/05 01:27:20;;;;;;;7.53;0.90;;;4.20;98.70;;;;;;5049163;28;20098;-60
2022/01/05 01:29:45;;;;;;;4.82;0.80;;;4.20;98.70;;;;;;5049038;28;20028;-61
2022/01/05 01:32:11;;;;;;;3.88;1.08;;;4.10;98.70;;;;;;5046373;28;20026;-60
2022/01/05 01:34:36;;;;;;;8.93;1.67;;;4.10;98.80;;;;;;5046008;28;20017;-60
2022/01/05 01:37:02;;;;;;;4.65;1.08;;;4.10;98.90;;;;;;5048809;28;20033;-60
2022/01/05 01:39:28;;;;;;;6.93;1.30;;;4.00;98.90;;;;;;5046115;28;20130;-60
2022/01/05 01:41:53;;;;;;;11.27;1.40;;;3.90;99.00;;;;;;5043334;28;20025;-60
2022/01/05 01:44:19;;;;;;;3.97;1.05;;;3.90;99.10;;;;;;5045979;28;20496;-60
2022/01/05 01:46:44;;;;;;;6.13;1.10;;;3.90;99.20;;;;;;5043662;28;20103;-60
2022/01/05 01:49:10;;;;;;;7.25;1.42;;;3.80;99.20;;;;;;5048158;28;20025;-60
2022/01/05 01:51:35;;;;;;;5.88;1.13;;;3.80;99.30;;;;;;5044426;28;20025;-60
2022/01/05 01:54:03;;;;;;;6.63;1.17;;;3.80;99.40;;;;;;5030636;28;20025;-60
2022/01/05 01:56:32;;;;;;;3.88;0.88;;;3.70;99.40;;;;;;5045711;28;20048;-60
2022/01/05 01:58:58;;;;;;;5.00;1.40;;;3.70;99.50;;;;;;5030838;28;20048;-60
2022/01/05 02:01:23;;;;;;;6.70;1.30;;;3.70;99.50;;;;;;5043008;28;20021;-60
2022/01/05 02:03:49;;;;;;;7.43;1.30;;;3.70;99.60;;;;;;5039836;28;20026;-60
2022/01/05 02:06:15;;;;;;;6.50;1.40;;;3.60;99.60;;;;;;5046700;28;20436;-60
2022/01/05 02:08:40;;;;;;;8.15;2.63;;;3.60;99.60;;;;;;5048171;28;20024;-60
2022/01/05 02:11:08;;;;;;;10.90;1.40;;;3.60;99.50;;;;;;5046661;28;20073;-60
2022/01/05 02:13:33;;;;;;;7.68;1.30;;;3.60;99.50;;;;;;5040465;28;20034;-60
2022/01/05 02:15:59;;;;;;;7.22;1.30;;;3.60;99.40;;;;;;5040883;28;20062;-60
2022/01/05 02:21:08;;;;;;;6.97;1.45;;;3.60;99.40;;;;;;5046985;28;20032;-60
2022/01/05 02:23:35;;;;;;;6.40;1.42;;;3.60;99.30;;;;;;5045881;28;20032;-60
2022/01/05 02:26:01;;;;;;;6.53;1.75;;;3.60;99.30;;;;;;5045780;28;20037;-60
2022/01/05 02:28:27;;;;;;;11.25;1.65;;;3.60;99.40;;;;;;5036896;28;20025;-60
2022/01/05 02:30:53;;;;;;;4.55;1.15;;;3.50;99.20;;;;;;5032583;28;20035;-60
2022/01/05 02:33:19;;;;;;;7.88;1.40;;;3.50;99.20;;;;;;5037033;28;20025;-60
2022/01/05 02:35:45;;;;;;;9.45;1.42;;;3.50;99.20;;;;;;5031935;28;20044;-60
2022/01/05 02:38:11;;;;;;;7.00;1.20;;;3.50;99.20;;;;;;5033430;28;20025;-60
2022/01/05 02:40:36;;;;;;;6.90;1.08;;;3.50;99.20;;;;;;5038071;28;20032;-60
2022/01/05 02:43:02;;;;;;;7.35;1.15;;;3.40;99.30;;;;;;5038928;28;20039;-60
2022/01/05 02:45:28;;;;;;;4.75;1.08;;;3.40;99.30;;;;;;5036359;28;20112;-60
2022/01/05 02:47:53;;;;;;;7.35;1.45;;;3.40;99.30;;;;;;5033937;28;20028;-60
2022/01/05 02:50:19;;;;;;;8.35;1.30;;;3.40;99.30;;;;;;5034585;28;20030;-60
2022/01/05 02:52:45;;;;;;;7.18;1.48;;;3.40;99.30;;;;;;5034486;28;20094;-60
2022/01/05 02:55:12;;;;;;;13.82;1.05;;;3.40;99.30;;;;;;5033748;28;20029;-60
2022/01/05 02:57:37;;;;;;;9.90;1.10;;;3.30;99.20;;;;;;5039451;28;20021;-60
2022/01/05 03:00:06;;;;;;;6.68;1.20;;;3.30;99.20;;;;;;5037662;28;20359;-60
2022/01/05 03:02:31;;;;;;;5.45;1.00;;;3.30;99.30;;;;;;5039103;28;20049;-60
2022/01/05 03:04:57;;;;;;;5.20;0.93;;;3.30;99.30;;;;;;5041996;28;20065;-60
2022/01/05 03:07:22;;;;;;;4.75;1.02;;;3.30;99.30;;;;;;5036224;28;20060;-60
2022/01/05 03:09:48;;;;;;;10.18;1.50;;;3.30;99.30;;;;;;5028681;28;20033;-59
2022/01/05 03:12:13;;;;;;;5.63;1.10;;;3.30;99.20;;;;;;5034526;28;20542;-60
2022/01/05 03:14:39;;;;;;;8.65;1.35;;;3.30;99.10;;;;;;5042521;28;20035;-60
2022/01/05 03:17:05;;;;;;;7.30;0.93;;;3.30;99.00;;;;;;5035380;28;20024;-60
2022/01/05 03:19:31;;;;;;;6.63;1.55;;;3.30;99.10;;;;;;5042376;28;20022;-60
2022/01/05 03:21:56;;;;;;;8.70;1.58;;;3.30;99.10;;;;;;5039837;28;20537;-60
2022/01/05 03:24:22;;;;;;;11.35;2.08;;;3.30;99.20;;;;;;5047178;28;20029;-60
2022/01/05 03:26:47;;;;;;;6.80;1.50;;;3.30;99.20;;;;;;5040668;28;20064;-60
2022/01/05 03:29:13;;;;;;;8.98;1.40;;;3.30;99.20;;;;;;5039904;28;20057;-60
2022/01/05 03:31:39;;;;;;;11.32;1.27;;;3.30;99.20;;;;;;5046934;28;20028;-60
2022/01/05 03:34:05;;;;;;;7.50;1.70;;;3.30;99.30;;;;;;5042178;28;20051;-60
2022/01/05 03:36:31;;;;;;;10.63;1.73;;;3.30;99.30;;;;;;5042617;28;20489;-60
2022/01/05 03:38:57;;;;;;;8.05;1.15;;;3.30;99.30;;;;;;5036773;28;20124;-60
2022/01/05 03:41:23;;;;;;;6.25;1.05;;;3.30;99.30;;;;;;5036781;28;20104;-60
2022/01/05 03:43:48;;;;;;;7.03;1.05;;;3.40;99.30;;;;;;5036620;28;20032;-60
2022/01/05 03:46:14;;;;;;;10.43;1.58;;;3.40;99.30;;;;;;5034645;28;20068;-60
2022/01/05 03:48:40;;;;;;;10.60;1.60;;;3.40;99.30;;;;;;5041372;28;20422;-60
2022/01/05 03:51:05;;;;;;;12.43;1.50;;;3.40;99.10;;;;;;5039083;28;20025;-60
2022/01/05 03:53:31;;;;;;;8.20;2.30;;;3.30;99.00;;;;;;5039452;28;20370;-60
2022/01/05 03:55:57;;;;;;;5.47;1.17;;;3.30;98.90;;;;;;5033682;28;20033;-59
2022/01/05 03:58:22;;;;;;;14.20;1.85;;;3.30;98.90;;;;;;5030996;28;20068;-60
2022/01/05 04:00:51;;;;;;;6.80;1.30;;;3.30;98.90;;;;;;5039126;28;20029;-60
2022/01/05 04:03:17;;;;;;;9.38;1.85;;;3.30;98.80;;;;;;5036252;28;20028;-60
2022/01/05 04:05:43;;;;;;;6.32;1.33;;;3.30;98.90;;;;;;5044391;28;20025;-60
2022/01/05 04:08:09;;;;;;;10.80;1.30;;;3.30;98.90;;;;;;5044440;28;20033;-60
2022/01/05 04:10:34;;;;;;;8.60;1.35;;;3.30;98.90;;;;;;5036158;28;20152;-60
2022/01/05 04:13:00;;;;;;;9.18;1.27;;;3.20;98.90;;;;;;5036118;28;20382;-60
2022/01/05 04:15:26;;;;;;;12.55;1.77;;;3.20;98.90;;;;;;5040797;28;20096;-60
2022/01/05 04:17:52;;;;;;;10.57;1.90;;;3.30;98.90;;;;;;5039304;28;20025;-60
2022/01/05 04:20:18;;;;;;;8.43;1.35;;;3.30;98.90;;;;;;5033185;28;20029;-60
2022/01/05 04:22:44;;;;;;;10.43;1.48;;;3.20;98.90;;;;;;5033230;28;20031;-60
2022/01/05 04:25:10;;;;;;;12.10;1.85;;;3.20;99.00;;;;;;5038656;28;20040;-60
2022/01/05 04:27:36;;;;;;;10.07;1.80;;;3.20;99.00;;;;;;5042019;28;20085;-59
2022/01/05 04:30:03;;;;;;;5.18;1.52;;;3.20;99.00;;;;;;5038980;28;20422;-60
2022/01/05 04:32:28;;;;;;;8.00;1.27;;;3.20;99.00;;;;;;5039064;28;20078;-60
2022/01/05 04:34:54;;;;;;;9.38;1.58;;;3.20;99.10;;;;;;5038467;28;20017;-60
2022/01/05 04:37:19;;;;;;;9.55;1.75;;;3.20;99.10;;;;;;5038465;28;20025;-60
2022/01/05 04:39:45;;;;;;;8.15;1.40;;;3.20;99.20;;;;;;5038453;28;20029;-60
2022/01/05 04:42:11;;;;;;;9.25;1.23;;;3.20;99.20;;;;;;5038274;28;20448;-60
2022/01/05 04:44:36;;;;;;;4.05;1.15;;;3.10;99.20;;;;;;5040909;28;20037;-60
2022/01/05 04:47:02;;;;;;;14.32;2.03;;;3.10;99.30;;;;;;5038409;28;20108;-60
2022/01/05 04:49:28;;;;;;;9.63;1.35;;;3.10;99.30;;;;;;5035586;28;20389;-60
2022/01/05 04:51:53;;;;;;;13.25;1.48;;;3.10;99.30;;;;;;5039272;28;20025;-60
2022/01/05 04:54:19;;;;;;;10.07;1.65;;;3.10;99.30;;;;;;5038187;28;20701;-60
2022/01/05 04:56:44;;;;;;;13.48;1.83;;;3.10;99.30;;;;;;5032714;28;20104;-60
2022/01/05 04:59:10;;;;;;;10.10;1.50;;;3.10;99.30;;;;;;5032462;28;20569;-60
2022/01/05 05:01:36;;;;;;;9.20;2.03;;;3.10;99.40;;;;;;5035954;28;20053;-60
2022/01/05 05:04:01;;;;;;;9.25;1.70;;;3.10;99.40;;;;;;5036953;28;20030;-60
2022/01/05 05:06:27;;;;;;;12.50;2.30;;;3.10;99.50;;;;;;5035206;28;20438;-60
2022/01/05 05:08:52;;;;;;;9.60;1.75;;;3.10;99.50;;;;;;5040785;28;20112;-60
2022/01/05 05:11:18;;;;;;;8.63;1.77;;;3.10;99.50;;;;;;5037858;28;20037;-60
2022/01/05 05:13:43;;;;;;;9.70;1.45;;;3.10;99.50;;;;;;5036708;28;20038;-60
2022/01/05 05:16:09;;;;;;;11.40;2.00;;;3.10;99.50;;;;;;5037015;28;20037;-60
2022/01/05 05:18:35;;;;;;;12.68;2.00;;;3.10;99.50;;;;;;5034888;28;20074;-60
2022/01/05 05:21:01;;;;;;;11.88;2.25;;;3.20;99.50;;;;;;5034862;28;20048;-60
2022/01/05 05:23:27;;;;;;;10.10;2.08;;;3.20;99.50;;;;;;5033559;28;20056;-60
2022/01/05 05:25:53;;;;;;;8.23;1.45;;;3.10;99.50;;;;;;5036054;28;20040;-60
2022/01/05 05:28:18;;;;;;;10.52;1.60;;;3.10;99.60;;;;;;5038689;28;20021;-60
2022/01/05 05:30:44;;;;;;;9.10;1.73;;;3.10;99.60;;;;;;5037402;28;20563;-60
2022/01/05 05:33:09;;;;;;;14.70;2.00;;;3.10;99.70;;;;;;5038226;28;20037;-60
2022/01/05 05:35:35;;;;;;;11.02;2.72;;;3.20;99.70;;;;;;5039834;28;20049;-60
2022/01/05 05:38:00;;;;;;;13.75;2.30;;;3.20;99.80;;;;;;5031921;28;20065;-60
2022/01/05 05:40:26;;;;;;;12.65;1.88;;;3.20;99.80;;;;;;5035977;28;20031;-60
2022/01/05 05:42:52;;;;;;;13.32;2.10;;;3.20;99.90;;;;;;5037330;28;20022;-60
2022/01/05 05:45:18;;;;;;;12.70;2.38;;;3.20;99.90;;;;;;5034963;28;20032;-60
2022/01/05 05:47:44;;;;;;;12.18;2.03;;;3.20;99.90;;;;;;5035738;28;20022;-60
2022/01/05 05:50:11;;;;;;;11.82;1.90;;;3.20;99.90;;;;;;5034280;28;20400;-60
2022/01/05 05:52:37;;;;;;;12.63;1.95;;;3.20;99.90;;;;;;5032305;28;20464;-60
2022/01/05 05:55:03;;;;;;;10.90;1.95;;;3.20;99.90;;;;;;5043022;28;20033;-60
2022/01/05 05:57:29;;;;;;;13.40;2.20;;;3.20;99.90;;;;;;5038400;28;20017;-60
2022/01/05 05:59:54;;;;;;;11.27;1.95;;;3.30;99.90;;;;;;5036674;28;20147;-59
2022/01/05 06:02:20;;;;;;;11.30;2.13;;;3.30;99.90;;;;;;5040752;28;20086;-60
2022/01/05 06:04:45;;;;;;;12.85;1.98;;;3.40;99.90;;;;;;5042013;28;20024;-59
2022/01/05 06:07:11;;;;;;;18.55;2.63;;;3.40;99.90;;;;;;5039715;28;20038;-60
2022/01/05 06:09:36;;;;;;;8.93;1.52;;;3.40;99.90;;;;;;5037321;28;20112;-60
2022/01/05 06:12:03;;;;;;;11.93;1.75;;;3.40;99.90;;;;;;5038444;28;20049;-60
2022/01/05 06:14:29;;;;;;;7.95;1.73;;;3.50;99.90;;;;;;5041762;28;20044;-59
2022/01/05 06:16:54;;;;;;;13.57;1.95;;;3.50;99.90;;;;;;5034785;28;20481;-60
2022/01/05 06:19:20;;;;;;;14.20;2.30;;;3.50;99.90;;;;;;5031102;28;20018;-59
2022/01/05 06:21:45;;;;;;;10.95;2.08;;;3.50;99.90;;;;;;5035404;28;20103;-60
2022/01/05 06:24:12;;;;;;;8.18;1.85;;;3.60;99.90;;;;;;5039125;28;20408;-60
2022/01/05 06:26:37;;;;;;;15.80;2.45;;;3.60;99.90;;;;;;5039884;28;20021;-60
2022/01/05 06:29:03;;;;;;;12.93;1.92;;;3.70;99.90;;;;;;5042097;28;20100;-59
2022/01/05 06:31:28;;;;;;;11.57;1.60;;;3.70;99.90;;;;;;5033576;28;20116;-60
2022/01/05 06:33:54;;;;;;;14.07;1.90;;;3.80;99.90;;;;;;5035985;28;20481;-59
2022/01/05 06:36:19;;;;;;;12.23;2.40;;;3.80;99.90;;;;;;5036446;28;20025;-60
2022/01/05 06:38:45;;;;;;;9.93;1.90;;;3.80;99.90;;;;;;5042132;28;20210;-60
2022/01/05 06:41:10;;;;;;;13.75;2.00;;;3.90;99.90;;;;;;5051119;28;20025;-60
2022/01/05 06:43:36;;;;;;;15.57;2.10;;;4.00;99.90;;;;;;5051092;28;20044;-60
2022/01/05 06:46:02;;;;;;;10.93;1.70;;;4.00;99.90;;;;;;5044514;28;20029;-60
2022/01/05 06:48:28;;;;;;;12.73;1.48;;;4.00;99.90;;;;;;5030689;28;20041;-60
2022/01/05 06:50:54;;;;;;;12.73;1.95;;;4.10;99.90;;;;;;5030529;28;20043;-60
2022/01/05 06:53:19;;;;;;;15.40;2.08;;;4.10;99.90;;;;;;5031373;28;20033;-60
2022/01/05 06:55:45;;;;;;;17.95;2.25;;;4.10;99.90;;;;;;5031838;28;20488;-60
2022/01/05 06:58:11;;;;;;;12.07;2.30;;;4.20;99.90;;;;;;5032203;28;20033;-60
2022/01/05 07:00:36;;;;;;;16.70;2.65;;;4.20;99.90;;;;;;5031759;28;20045;-60
2022/01/05 07:03:02;;;;;;;11.07;2.15;;;4.20;99.90;;;;;;5031637;28;20120;-60
2022/01/05 07:05:27;;;;;;;10.95;2.05;;;4.20;99.90;;;;;;5031725;28;20029;-60
2022/01/05 07:07:53;;;;;;;15.50;3.25;;;4.30;99.90;;;;;;5032060;28;20044;-60
2022/01/05 07:10:19;;;;;;;16.00;2.28;;;4.30;99.90;;;;;;5031578;28;20041;-60
2022/01/05 07:12:44;;;;;;;15.23;2.08;;;4.30;99.90;;;;;;5047760;28;20029;-60
2022/01/05 07:15:11;;;;;;;11.80;2.10;;;4.30;99.90;;;;;;5047718;28;20473;-60
2022/01/05 07:17:37;;;;;;;16.25;2.67;;;4.30;99.90;;;;;;5051206;28;20036;-60
2022/01/05 07:20:04;;;;;;;15.40;2.08;;;4.40;99.90;;;;;;5051374;28;20032;-61
2022/01/05 07:22:30;;;;;;;13.95;3.28;;;4.40;99.90;;;;;;5051518;28;20078;-60
2022/01/05 07:24:56;;;;;;;9.80;1.95;;;4.40;99.90;;;;;;5051396;28;20057;-60
2022/01/05 07:27:25;;;;;;;15.88;4.10;;;4.40;99.90;;;;;;5049982;28;20021;-60
2022/01/05 07:29:50;;;;;;;9.95;1.90;;;4.50;99.90;;;;;;5051358;28;20103;-60
2022/01/05 07:32:16;;;;;;;9.15;1.90;;;4.50;99.90;;;;;;5051276;28;20073;-60
2022/01/05 07:34:41;;;;;;;12.95;1.75;;;4.50;99.90;;;;;;5047287;28;20496;-60
2022/01/05 07:37:07;;;;;;;12.85;1.67;;;4.50;99.90;;;;;;5042783;28;20036;-60
2022/01/05 07:39:33;;;;;;;15.57;1.92;;;4.50;99.90;;;;;;5045906;28;20452;-60
2022/01/05 07:41:58;;;;;;;14.55;1.92;;;4.60;99.90;;;;;;5047813;28;20036;-60
2022/01/05 07:44:24;;;;;;;14.27;2.15;;;4.60;99.90;;;;;;5042024;28;20025;-60
2022/01/05 07:46:50;;;;;;;7.43;1.67;;;4.60;99.90;;;;;;5047254;28;20064;-60
2022/01/05 07:49:15;;;;;;;12.38;3.05;;;4.60;99.90;;;;;;5048442;28;20028;-60
2022/01/05 07:51:41;;;;;;;9.77;1.70;;;4.70;99.90;;;;;;5049936;28;20033;-60
2022/01/05 07:54:06;;;;;;;14.80;2.03;;;4.70;99.90;;;;;;5044811;28;20029;-60
2022/01/05 07:56:32;;;;;;;13.82;1.42;;;4.70;99.90;;;;;;5050062;28;20576;-60
2022/01/05 07:58:58;;;;;;;17.77;3.40;;;4.70;99.90;;;;;;5050687;28;20078;-60
2022/01/05 08:01:23;;;;;;;8.93;1.75;;;4.70;99.90;;;;;;5053237;28;20024;-60
2022/01/05 08:03:49;;;;;;;15.77;1.98;;;4.70;99.90;;;;;;5052841;28;20381;-60
2022/01/05 08:06:17;;;;;;;18.25;2.55;;;4.80;99.90;;;;;;5054969;28;20060;-60
2022/01/05 08:08:43;;;;;;;17.38;2.33;;;4.80;99.90;;;;;;5053500;28;20532;-60
2022/01/05 08:11:09;;;;;;;10.20;1.70;;;4.80;99.90;;;;;;5053048;28;20101;-60
2022/01/05 08:13:35;;;;;;;13.07;1.60;;;4.80;99.90;;;;;;5054323;28;20436;-60
2022/01/05 08:16:00;;;;;;;12.15;2.25;;;4.90;99.90;;;;;;5054248;28;20032;-60
2022/01/05 08:18:26;;;;;;;10.43;1.77;;;4.80;99.90;;;;;;5051212;28;20029;-60
2022/01/05 08:20:51;;;;;;;9.75;1.50;;;4.90;99.90;;;;;;5053381;28;20075;-60
2022/01/05 08:23:18;;;;;;;15.75;2.65;;;4.90;99.90;;;;;;5053973;28;20044;-59
2022/01/05 08:25:44;;;;;;;11.88;1.55;;;4.90;99.90;;;;;;5052258;28;20060;-60
2022/01/05 08:28:11;;;;;;;14.38;1.67;;;4.90;99.90;;;;;;5053790;28;20101;-60
2022/01/05 08:30:38;;;;;;;9.93;1.63;;;5.00;99.90;;;;;;5052342;28;20028;-60
2022/01/05 08:33:04;;;;;;;11.27;1.88;;;5.00;99.90;;;;;;5053501;28;20021;-60
2022/01/05 08:35:30;;;;;;;13.35;1.50;;;5.00;99.90;;;;;;5053285;28;20040;-60
2022/01/05 08:37:56;;;;;;;10.43;1.63;;;5.00;99.80;;;;;;5040097;28;21137;-60
2022/01/05 08:40:23;;;;;;;12.98;2.17;;;5.00;99.90;;;;;;5032626;28;20021;-60
2022/01/05 08:42:50;;;;;;;12.85;1.90;;;5.10;99.90;;;;;;5040298;28;20036;-59
2022/01/05 08:45:17;;;;;;;11.00;1.58;;;5.10;99.90;;;;;;5052379;28;20020;-60
2022/01/05 08:47:47;;;;;;;20.10;2.63;;;5.10;99.90;;;;;;5053343;28;20028;-60
2022/01/05 08:50:14;;;;;;;16.00;2.70;;;5.10;99.90;;;;;;5051420;28;20484;-59
2022/01/05 08:52:40;;;;;;;19.17;2.35;;;5.20;99.90;;;;;;5052836;28;20033;-60
2022/01/05 08:55:06;;;;;;;13.60;1.73;;;5.20;99.90;;;;;;5053031;28;20024;-60
2022/01/05 08:57:32;;;;;;;11.63;2.05;;;5.10;99.90;;;;;;5053205;28;20032;-60
2022/01/05 08:59:58;;;;;;;12.65;1.80;;;5.10;99.90;;;;;;5053048;28;20040;-60
2022/01/05 09:02:23;;;;;;;16.60;2.53;;;5.10;99.90;;;;;;5052974;28;20112;-60
2022/01/05 09:04:51;;;;;;;13.00;2.28;;;5.20;99.90;;;;;;5052580;28;20143;-60
2022/01/05 09:07:18;;;;;;;13.82;1.98;;;5.20;99.90;;;;;;5052608;28;20396;-60
2022/01/05 09:09:44;;;;;;;17.83;2.00;;;5.20;99.90;;;;;;5051903;28;20100;-60
2022/01/05 09:12:10;;;;;;;23.08;2.80;;;5.20;99.90;;;;;;5052629;28;20127;-60
2022/01/05 09:14:36;;;;;;;17.75;2.30;;;5.10;99.90;;;;;;5050481;28;20024;-60
2022/01/05 09:17:02;;;;;;;12.88;1.85;;;5.10;99.90;;;;;;5047412;28;20392;-60
2022/01/05 09:19:28;;;;;;;10.88;2.42;;;5.10;99.90;;;;;;5052585;28;20032;-60
2022/01/05 09:21:54;;;;;;;13.20;2.05;;;5.10;99.90;;;;;;5052367;28;20021;-60
2022/01/05 09:24:20;;;;;;;15.20;2.47;;;5.10;99.90;;;;;;5051287;28;20232;-60
2022/01/05 09:26:45;;;;;;;13.77;2.15;;;5.10;99.90;;;;;;5049280;28;20059;-60
2022/01/05 09:29:11;;;;;;;17.23;3.03;;;5.10;99.90;;;;;;5053225;28;20025;-60
2022/01/05 09:31:37;;;;;;;17.38;2.35;;;5.10;99.90;;;;;;5047342;28;20083;-60
2022/01/05 09:34:03;;;;;;;14.93;1.95;;;5.20;99.90;;;;;;5050338;28;20078;-60
2022/01/05 09:36:36;;;;;;;17.20;2.40;;;5.10;99.90;;;;;;5052895;28;20099;-59
2022/01/05 09:41:59;;;;;;;8.50;1.85;;;5.10;99.90;;;;;;5053363;28;20381;-60
2022/01/05 09:44:31;;;;;;;16.40;2.25;;;5.10;99.90;;;;;;5051799;28;20075;-60
2022/01/05 09:47:19;;;;;;;20.65;2.58;;;5.10;99.90;;;;;;5052860;28;20642;-60
2022/01/05 09:50:07;;;;;;;15.10;2.28;;;5.10;99.90;;;;;;5052898;28;20098;-60
2022/01/05 09:52:35;;;;;;;16.65;4.18;;;5.10;99.90;;;;;;5052712;28;20489;-60
2022/01/05 09:55:03;;;;;;;17.60;2.40;;;5.10;99.90;;;;;;5052592;28;20033;-60
2022/01/05 09:57:29;;;;;;;19.77;2.78;;;5.10;99.90;;;;;;5052558;28;20488;-60
2022/01/05 09:59:56;;;;;;;14.30;2.53;;;5.20;99.90;;;;;;5052666;28;20385;-60
2022/01/05 10:02:22;;;;;;;14.05;1.70;;;5.20;99.90;;;;;;5052764;28;20021;-60
2022/01/05 10:04:49;;;;;;;17.00;2.38;;;5.30;99.90;;;;;;5033679;28;20033;-60
2022/01/05 10:07:15;;;;;;;20.48;2.50;;;5.30;99.90;;;;;;5029260;28;20068;-60
2022/01/05 10:09:42;;;;;;;13.55;1.88;;;5.30;99.90;;;;;;5049333;28;20104;-60
2022/01/05 10:12:09;;;;;;;10.48;2.13;;;5.30;99.90;;;;;;5051147;28;20048;-60
2022/01/05 10:14:56;;;;;;;12.70;2.58;;;5.30;99.90;;;;;;5052406;28;20489;-60
2022/01/05 10:17:30;;;;;;;12.10;1.80;;;5.30;99.90;;;;;;5052287;28;20027;-60
2022/01/05 10:20:01;;;;;;;15.35;2.58;;;5.40;99.90;;;;;;5052448;28;20100;-59
2022/01/05 10:23:02;;;;;;;17.33;2.78;;;5.30;99.90;;;;;;5052220;28;20107;-60
2022/01/05 10:25:28;;;;;;;20.00;2.10;;;5.40;99.90;;;;;;5050301;28;20041;-61
2022/01/05 10:28:01;;;;;;;21.65;2.67;;;5.40;99.90;;;;;;5052203;28;20067;-60
2022/01/05 10:30:55;;;;;;;14.10;2.72;;;5.40;99.90;;;;;;5052136;28;20206;-60
2022/01/05 10:33:28;;;;;;;17.67;3.30;;;5.50;99.90;;;;;;5047294;28;20032;-60
2022/01/05 10:35:56;;;;;;;17.65;2.90;;;5.50;99.90;;;;;;5052120;28;20450;-60
2022/01/05 10:38:28;;;;;;;15.93;2.10;;;5.50;99.90;;;;;;5046914;28;20503;-60
2022/01/05 10:40:54;;;;;;;16.13;2.75;;;5.50;99.90;;;;;;5052113;28;20029;-60
2022/01/05 10:43:19;;;;;;;15.80;3.00;;;5.60;99.90;;;;;;5050888;28;20037;-60
2022/01/05 10:45:47;;;;;;;18.05;2.88;;;5.60;99.90;;;;;;5052193;28;20029;-60
2022/01/05 10:48:19;;;;;;;14.85;2.45;;;5.60;99.90;;;;;;5052067;28;20033;-60
2022/01/05 10:50:50;;;;;;;13.75;1.77;;;5.70;99.90;;;;;;5050832;28;20060;-60
2022/01/05 10:53:21;;;;;;;11.60;2.33;;;5.70;99.90;;;;;;5052265;28;20138;-61
2022/01/05 10:55:47;;;;;;;20.45;2.35;;;5.70;99.90;;;;;;5051877;28;20078;-61
2022/01/05 10:58:15;;;;;;;18.75;2.55;;;5.80;99.90;;;;;;5052117;28;20032;-60
2022/01/05 11:00:47;;;;;;;13.30;2.08;;;5.80;99.90;;;;;;5052024;28;20535;-60
2022/01/05 11:03:20;;;;;;;19.95;2.33;;;5.90;99.90;;;;;;5051935;28;20025;-60
2022/01/05 11:06:04;;;;;;;13.23;2.55;;;6.00;99.90;;;;;;5048313;28;20393;-60
2022/01/05 11:08:46;;;;;;;13.90;2.85;;;6.20;99.90;;;;;;5051614;28;20468;-60
2022/01/05 11:11:31;;;;;;;18.20;4.10;;;6.20;99.90;;;;;;5051740;28;20037;-60
2022/01/05 11:13:56;;;;;;;14.07;2.92;;;6.40;99.90;;;;;;5051853;28;20096;-60
2022/01/05 11:16:30;;;;;;;17.17;2.78;;;6.50;99.90;;;;;;5051710;28;20032;-60
2022/01/05 11:19:18;;;;;;;13.77;2.83;;;6.70;99.90;;;;;;5051966;28;20025;-60
2022/01/05 11:22:16;;;;;;;19.15;3.33;;;6.70;99.90;;;;;;5050556;28;20025;-60
2022/01/05 11:24:51;;;;;;;16.55;2.72;;;6.70;99.90;;;;;;5051212;28;20029;-60
2022/01/05 11:27:19;;;;;;;19.85;3.60;;;6.60;99.90;;;;;;5051999;28;20071;-60
2022/01/05 11:29:46;;;;;;;10.30;1.70;;;6.50;99.90;;;;;;5051642;28;20022;-60
2022/01/05 11:32:15;;;;;;;16.60;2.20;;;6.50;99.90;;;;;;5051429;28;20025;-60
2022/01/05 11:34:40;;;;;;;18.10;2.90;;;6.50;99.90;;;;;;5050745;28;20025;-60
2022/01/05 11:37:10;;;;;;;16.02;2.28;;;6.80;99.90;;;;;;5034176;28;20033;-60
2022/01/05 11:39:42;;;;;;;15.60;3.63;;;7.10;99.90;;;;;;5045318;28;20032;-61
2022/01/05 11:42:10;;;;;;;12.02;2.70;;;7.20;99.90;;;;;;5055433;28;20290;-60
2022/01/05 11:44:51;;;;;;;16.05;2.30;;;7.20;99.90;;;;;;5055317;28;20106;-60
2022/01/05 11:50:51;;;;;;;13.85;2.15;;;7.00;99.90;;;;;;5030618;28;20068;-60
2022/01/05 11:53:36;;;;;;;13.27;2.05;;;6.80;99.90;;;;;;5025361;28;20037;-60
2022/01/05 11:56:13;;;;;;;14.98;2.45;;;6.70;99.90;;;;;;5043268;28;20064;-60
2022/01/05 11:58:55;;;;;;;11.52;2.40;;;6.70;99.90;;;;;;5055066;28;20088;-60
2022/01/05 12:01:24;;;;;;;15.95;2.78;;;6.70;99.90;;;;;;5055088;28;20028;-60
2022/01/05 12:03:50;;;;;;;15.30;2.50;;;6.70;99.90;;;;;;5054870;28;20112;-60
2022/01/05 12:06:16;;;;;;;19.45;2.55;;;6.70;99.90;;;;;;5054975;28;20496;-60
2022/01/05 12:08:50;;;;;;;14.98;2.97;;;6.70;99.90;;;;;;5054993;28;20107;-60
2022/01/05 12:11:41;;;;;;;13.88;2.35;;;6.70;99.90;;;;;;5051337;28;20033;-60
2022/01/05 12:14:22;;;;;;;13.80;2.45;;;6.60;99.90;;;;;;5043412;28;20053;-60
2022/01/05 12:17:00;;;;;;;18.33;3.00;;;6.70;99.90;;;;;;5050163;28;20028;-60
2022/01/05 12:19:27;;;;;;;17.35;2.60;;;6.60;99.90;;;;;;5050015;28;20052;-60
2022/01/05 12:21:55;;;;;;;15.75;2.47;;;6.70;99.90;;;;;;5050894;28;20074;-60
2022/01/05 12:24:22;;;;;;;11.07;1.88;;;6.70;99.90;;;;;;5053444;28;20016;-60
2022/01/05 12:27:18;;;;;;;12.55;2.20;;;6.70;99.90;;;;;;5053271;28;20484;-60
2022/01/05 12:29:46;;;;;;;20.35;2.58;;;6.70;99.90;;;;;;5053409;28;20025;-59
2022/01/05 12:32:29;;;;;;;12.30;2.03;;;6.70;99.90;;;;;;5053500;28;20049;-60
2022/01/05 12:34:57;;;;;;;12.90;2.38;;;6.80;99.90;;;;;;5050877;28;20029;-61
2022/01/05 12:37:44;;;;;;;13.52;1.67;;;6.90;99.90;;;;;;5053444;28;20476;-60
2022/01/05 12:40:23;;;;;;;12.63;2.00;;;7.10;99.90;;;;;;5053285;28;20104;-60
2022/01/05 12:43:07;;;;;;;11.40;1.80;;;7.10;99.90;;;;;;5053054;28;20491;-61
2022/01/05 12:45:52;;;;;;;14.40;2.33;;;7.10;99.90;;;;;;5050634;28;20305;-60
2022/01/05 12:48:33;;;;;;;9.45;1.85;;;7.00;99.90;;;;;;5053186;28;20017;-60
2022/01/05 12:51:23;;;;;;;14.43;1.75;;;6.90;99.90;;;;;;5052672;28;20033;-61
2022/01/05 12:54:09;;;;;;;15.25;2.10;;;6.90;99.90;;;;;;5053936;28;20060;-60
2022/01/05 12:56:44;;;;;;;10.38;1.65;;;6.80;99.90;;;;;;5053745;28;20052;-61
2022/01/05 12:59:15;;;;;;;13.32;1.92;;;6.70;99.90;;;;;;5052623;28;20476;-61
2022/01/05 13:01:41;;;;;;;12.07;2.08;;;6.70;99.90;;;;;;5053931;28;20029;-60
2022/01/05 13:04:09;;;;;;;10.43;1.92;;;6.60;99.90;;;;;;5053990;28;20044;-60